Ana Sayfa
METAR-TAF:

METAR-TAF

Havaalanları :

Kinşasa, Kongo

Enlem: 04-23S, Boylam: 015-26E, yükseklik: 309 m

Güncel hava durumu gözlemi

Rapor saat 01:00 UTC de 25 saat ve 8 dakika önce yapıldı.
Rüzgar doğudan 8 kt
Sıcaklık 22°C
Nem 88%
Basınç 1013 hPa
Görüş mesafesi: 4000 m
1400 ft yükseklikte az bulutlu
2800 ft yükseklikte parçalı bulutlu, Kümülonimbus.
10000 ft yükseklikte çok bulutlu
gök gürültülü fırtına, hafif yağmur

METAR: FZAA 250100Z 09008KT 4000 -TSRA FEW014 SCT028CB OVC100 22/20 Q1013 BECMG 6000

Saat: 03:08 (02:08 UTC)


TAF: eksik

4.000'den fazla havaalanı için hava durumu gözlemleri ve tahminleri (METAR ve TAF raporları).

Kullanılabilir istasyonlar harita üzerinde sarı ve kırmızı noktalarla gösterilir.

İstasyonun adını görmek için fareyi noktanın üzerinde gezdirin.

Sonrasında hava gözlem ve tahminlerini görmek için tıklayın.

Haritayı değiştirmek için: yaklaştırmak için siyah artı işaretli yeşil düğmeye ve uzaklaştırmak için de eksi işaretli düğmeye hızla tıklayın; bitişik haritalar için yeşil okları kullanın.


METAR-TAF: